createdAt,value
2022-08-18T00:01:47.596Z,45.25
2022-08-18T00:04:34.804Z,49.25
2022-08-18T00:07:02.607Z,66.93
2022-08-18T00:09:32.572Z,58.92
2022-08-18T00:12:01.991Z,57.75
2022-08-18T00:14:28.947Z,64.07
2022-08-18T00:16:55.542Z,62.20
2022-08-18T00:19:45.933Z,59.88
2022-08-18T00:22:14.814Z,67.45
2022-08-18T00:24:48.102Z,74.63
2022-08-18T00:27:19.547Z,81.30
2022-08-18T00:29:48.971Z,72.75
2022-08-18T00:32:19.795Z,80.95
2022-08-18T00:34:46.307Z,79.50
2022-08-18T00:37:12.823Z,78.00
2022-08-18T00:39:45.997Z,82.45
2022-08-18T00:42:28.685Z,75.00
2022-08-18T00:45:01.890Z,73.03
2022-08-18T00:47:41.360Z,72.00
2022-08-18T00:50:16.516Z,66.55
2022-08-18T00:52:51.678Z,65.45
2022-08-18T00:55:19.430Z,60.13
2022-08-18T00:57:48.436Z,56.63
2022-08-18T01:00:15.336Z,56.70
2022-08-18T01:02:49.796Z,52.05
2022-08-18T01:05:41.126Z,52.50
2022-08-18T01:08:11.722Z,52.53
2022-08-18T01:10:39.543Z,52.85
2022-08-18T01:13:06.818Z,55.33
2022-08-18T01:15:34.036Z,55.75
2022-08-18T01:18:22.976Z,56.45
2022-08-18T01:21:27.354Z,56.75
2022-08-18T01:23:55.167Z,53.03
2022-08-18T01:26:24.428Z,55.22
2022-08-18T01:28:52.310Z,50.75
2022-08-18T01:31:38.291Z,54.83
2022-08-18T01:34:10.442Z,51.75
2022-08-18T01:36:40.645Z,53.03
2022-08-18T01:39:09.451Z,48.88
2022-08-18T01:41:36.160Z,52.92
2022-08-18T01:44:03.497Z,52.70
2022-08-18T01:46:33.657Z,51.40
2022-08-18T01:49:01.099Z,52.65
2022-08-18T01:51:39.944Z,51.88
2022-08-18T01:54:12.307Z,51.35
2022-08-18T01:56:40.771Z,49.67
2022-08-18T02:01:43.304Z,46.13
2022-08-18T02:04:34.398Z,49.13
2022-08-18T02:07:05.464Z,53.20
2022-08-18T02:09:33.562Z,58.85
2022-08-18T02:12:01.183Z,63.30
2022-08-18T02:14:27.834Z,57.88
2022-08-18T02:17:02.117Z,57.38
2022-08-18T02:19:33.977Z,54.80
2022-08-18T02:22:00.592Z,54.70
2022-08-18T02:24:27.152Z,54.55
2022-08-18T02:26:53.682Z,54.53
2022-08-18T02:29:20.175Z,53.92
2022-08-18T02:31:46.699Z,55.00
2022-08-18T02:34:13.255Z,52.17
2022-08-18T02:36:39.724Z,53.53
2022-08-18T02:39:06.250Z,50.28
2022-08-18T02:41:33.110Z,53.45
2022-08-18T02:44:00.172Z,51.75
2022-08-18T02:46:29.296Z,53.67
2022-08-18T02:48:57.253Z,56.85
2022-08-18T02:51:25.953Z,57.45
2022-08-18T02:53:53.847Z,58.65
2022-08-18T02:56:40.242Z,60.22
2022-08-18T02:59:13.696Z,63.00
2022-08-18T03:01:47.722Z,62.40
2022-08-18T03:04:17.516Z,63.22
2022-08-18T03:06:45.384Z,62.65
2022-08-18T03:09:15.264Z,61.20
2022-08-18T03:11:43.524Z,56.63
2022-08-18T03:16:54.521Z,50.20
2022-08-18T03:19:31.906Z,51.42
2022-08-18T03:22:03.278Z,51.92
2022-08-18T03:24:32.169Z,51.90
2022-08-18T03:26:58.958Z,50.65
2022-08-18T03:29:31.334Z,51.65
2022-08-18T03:31:59.415Z,51.53
2022-08-18T03:34:26.002Z,52.15
2022-08-18T03:36:52.570Z,50.50
2022-08-18T03:39:20.015Z,52.70
2022-08-18T03:41:58.241Z,55.42
2022-08-18T03:44:27.855Z,56.22
2022-08-18T03:49:20.989Z,57.63
2022-08-18T03:51:48.622Z,63.95
2022-08-18T03:54:17.857Z,61.27
2022-08-18T03:56:46.705Z,65.10
2022-08-18T03:59:17.951Z,66.20
2022-08-18T04:01:45.921Z,64.95
2022-08-18T04:04:16.717Z,61.38
2022-08-18T04:06:55.795Z,64.53
2022-08-18T04:09:24.679Z,58.78
2022-08-18T04:11:51.952Z,58.78
2022-08-18T04:14:21.627Z,58.92
2022-08-18T04:16:49.199Z,60.75
2022-08-18T04:19:26.554Z,62.78
2022-08-18T04:21:56.436Z,59.10
2022-08-18T04:24:23.383Z,57.17
2022-08-18T04:26:50.110Z,58.63
2022-08-18T04:29:21.178Z,59.17
2022-08-18T04:31:49.400Z,58.25
2022-08-18T04:34:16.409Z,56.03
2022-08-18T04:36:43.131Z,57.50
2022-08-18T04:39:11.671Z,55.75
2022-08-18T04:44:08.618Z,52.05
2022-08-18T04:46:40.049Z,54.90
2022-08-18T04:49:08.097Z,56.00
2022-08-18T04:52:37.140Z,56.50
2022-08-18T04:54:24.926Z,52.50
2022-08-18T04:56:51.657Z,55.33
2022-08-18T04:59:19.286Z,56.42
2022-08-18T05:01:48.176Z,55.38
2022-08-18T05:04:16.883Z,56.38
2022-08-18T05:09:13.299Z,53.20
2022-08-18T05:11:44.492Z,57.10
2022-08-18T05:14:11.729Z,59.07
2022-08-18T05:16:47.846Z,57.92
2022-08-18T05:19:27.264Z,57.97
2022-08-18T05:22:17.167Z,60.55
2022-08-18T05:24:45.398Z,57.65
2022-08-18T05:27:13.033Z,60.58
2022-08-18T05:29:42.001Z,62.87
2022-08-18T05:32:38.274Z,61.70
2022-08-18T05:35:33.319Z,64.53
2022-08-18T05:38:24.475Z,62.65
2022-08-18T05:41:14.029Z,64.93
2022-08-18T05:43:52.119Z,67.00
2022-08-18T05:46:22.009Z,64.00
2022-08-18T05:48:48.796Z,67.40
2022-08-18T05:51:28.125Z,66.53
2022-08-18T05:54:13.169Z,68.80
2022-08-18T05:56:49.013Z,66.85
2022-08-18T05:59:31.670Z,67.88
2022-08-18T06:02:08.620Z,67.80
2022-08-18T06:04:44.380Z,68.57
2022-08-18T06:07:15.818Z,66.03
2022-08-18T06:09:50.794Z,68.25
2022-08-18T06:12:33.526Z,68.65
2022-08-18T06:15:11.793Z,67.95
2022-08-18T06:17:59.023Z,68.40
2022-08-18T06:20:34.589Z,63.55
2022-08-18T06:23:06.248Z,65.78
2022-08-18T06:29:38.389Z,62.83
2022-08-18T06:32:52.340Z,63.60
2022-08-18T06:42:41.020Z,60.95
2022-08-18T06:45:12.911Z,62.15
2022-08-18T06:55:38.019Z,60.35
2022-08-18T06:58:21.426Z,62.03
2022-08-18T07:01:36.637Z,64.22
2022-08-18T07:04:03.315Z,65.13
2022-08-18T07:06:59.641Z,67.82
2022-08-18T07:09:33.888Z,68.35
2022-08-18T07:12:09.145Z,70.10
2022-08-18T07:14:50.594Z,67.22
2022-08-18T07:17:43.131Z,67.35
2022-08-18T07:20:25.101Z,68.10
2022-08-18T07:22:56.798Z,68.18
2022-08-18T07:25:37.968Z,66.47
2022-08-18T07:28:07.996Z,70.03
2022-08-18T07:30:37.793Z,69.35
2022-08-18T07:33:22.574Z,66.78
2022-08-18T07:35:57.003Z,67.30
2022-08-18T07:38:51.764Z,67.68
2022-08-18T07:41:30.521Z,67.97
2022-08-18T07:44:13.559Z,69.22
2022-08-18T07:47:21.853Z,66.88
2022-08-18T07:50:16.508Z,67.18
2022-08-18T07:52:47.019Z,67.30
2022-08-18T07:55:24.511Z,66.22
2022-08-18T07:58:03.655Z,67.30
2022-08-18T08:03:32.650Z,63.58
2022-08-18T08:06:14.992Z,71.63
2022-08-18T08:08:56.938Z,69.05
2022-08-18T08:26:37.044Z,68.53
2022-08-18T08:29:27.739Z,70.25
2022-08-18T08:31:57.587Z,73.28
2022-08-18T08:34:35.249Z,69.38
2022-08-18T08:37:05.355Z,72.72
2022-08-18T08:39:54.061Z,70.75
2022-08-18T08:42:37.462Z,68.35
2022-08-18T08:45:31.040Z,67.65
2022-08-18T08:48:09.228Z,62.40
2022-08-18T08:50:45.378Z,64.30
2022-08-18T08:53:34.223Z,59.65
2022-08-18T08:56:09.701Z,62.08
2022-08-18T08:58:51.429Z,62.63
2022-08-18T09:01:34.727Z,63.75
2022-08-18T09:04:19.606Z,62.05
2022-08-18T09:07:08.265Z,59.42
2022-08-18T09:09:56.483Z,59.38
2022-08-18T09:12:44.836Z,60.00
2022-08-18T09:15:29.528Z,56.85
2022-08-18T09:18:05.298Z,54.13
2022-08-18T09:21:05.274Z,56.13
2022-08-18T09:23:46.828Z,55.40
2022-08-18T09:26:39.980Z,55.28
2022-08-18T09:29:45.495Z,57.72
2022-08-18T09:32:23.031Z,50.60
2022-08-18T09:35:08.909Z,50.97
2022-08-18T09:38:13.508Z,52.30
2022-08-18T09:41:17.665Z,50.35
2022-08-18T09:44:11.933Z,52.83
2022-08-18T09:46:48.024Z,54.00
2022-08-18T09:49:24.879Z,54.85
2022-08-18T09:51:56.085Z,50.58
2022-08-18T09:54:25.626Z,49.55
2022-08-18T09:56:55.802Z,49.28
2022-08-18T10:02:30.112Z,51.50
2022-08-18T10:05:15.510Z,50.53
2022-08-18T10:07:45.064Z,49.17
2022-08-18T10:11:00.726Z,51.08
2022-08-18T10:13:49.627Z,50.20
2022-08-18T10:16:38.242Z,50.92
2022-08-18T10:19:33.844Z,48.95
2022-08-18T10:22:09.340Z,49.05
2022-08-18T10:24:38.110Z,50.15
2022-08-18T10:27:12.014Z,46.88
2022-08-18T10:29:46.439Z,48.92
2022-08-18T10:32:14.115Z,47.00
2022-08-18T10:34:51.858Z,47.53
2022-08-18T10:40:04.651Z,40.83
2022-08-18T10:43:15.003Z,40.80
2022-08-18T10:48:40.337Z,45.13
2022-08-18T10:55:00.839Z,40.70
2022-08-18T10:58:00.503Z,38.58
2022-08-18T11:00:45.226Z,36.40
2022-08-18T11:06:27.811Z,36.53
2022-08-18T11:09:01.100Z,37.50
2022-08-18T11:12:01.580Z,35.97
2022-08-18T11:14:59.629Z,33.95
2022-08-18T11:17:40.540Z,30.20
2022-08-18T11:20:13.117Z,29.08
2022-08-18T11:22:56.408Z,25.25
2022-08-18T11:25:25.023Z,27.70
2022-08-18T11:27:54.768Z,29.33
2022-08-18T11:30:31.022Z,30.50
2022-08-18T11:33:02.568Z,33.65
2022-08-18T11:35:34.236Z,34.42
2022-08-18T11:38:12.332Z,36.75
2022-08-18T11:43:40.937Z,33.30
2022-08-18T11:46:29.552Z,33.33
2022-08-18T11:48:59.977Z,34.90
2022-08-18T11:51:32.618Z,34.22
2022-08-18T11:54:00.994Z,35.60
2022-08-18T11:56:32.401Z,35.95
2022-08-18T11:59:52.581Z,34.80
2022-08-18T12:02:20.638Z,34.55
2022-08-18T12:04:52.866Z,36.92
2022-08-18T12:07:33.862Z,39.75
2022-08-18T12:10:26.505Z,37.88
2022-08-18T12:12:57.562Z,33.70
2022-08-18T12:15:29.574Z,34.15
2022-08-18T12:18:11.051Z,36.33
2022-08-18T12:20:52.446Z,35.67
2022-08-18T12:23:18.948Z,35.28
2022-08-18T12:25:45.420Z,35.33
2022-08-18T12:28:12.070Z,34.65
2022-08-18T12:30:42.032Z,34.60
2022-08-18T12:33:10.500Z,32.80
2022-08-18T12:35:41.997Z,31.60
2022-08-18T12:38:13.508Z,30.00
2022-08-18T12:40:41.896Z,32.15
2022-08-18T12:43:09.095Z,30.17
2022-08-18T12:56:36.828Z,22.88
2022-08-18T12:59:05.929Z,21.75
2022-08-18T13:01:33.643Z,24.38
2022-08-18T13:04:12.575Z,28.23
2022-08-18T13:06:59.905Z,27.83
2022-08-18T13:09:35.143Z,25.85
2022-08-18T13:12:18.398Z,27.20
2022-08-18T13:14:46.139Z,25.00
2022-08-18T13:17:32.669Z,24.88
2022-08-18T13:20:09.559Z,24.85
2022-08-18T13:22:40.857Z,22.58
2022-08-18T13:25:09.894Z,25.63
2022-08-18T13:27:37.577Z,24.20
2022-08-18T13:30:31.020Z,22.08
2022-08-18T13:33:02.386Z,21.17
2022-08-18T13:35:38.114Z,21.52
2022-08-18T13:38:15.649Z,22.52
2022-08-18T13:40:48.546Z,22.27
2022-08-18T13:43:17.453Z,21.30
2022-08-18T13:45:46.966Z,20.88
2022-08-18T13:48:19.807Z,21.42
2022-08-18T13:50:47.037Z,27.48
2022-08-18T13:53:19.842Z,25.23
2022-08-18T13:55:46.786Z,27.10
2022-08-18T13:58:17.592Z,24.20
2022-08-18T14:00:52.416Z,23.77
2022-08-18T14:03:42.345Z,23.73
2022-08-18T14:06:11.590Z,24.05
2022-08-18T14:08:40.308Z,21.98
2022-08-18T14:11:07.040Z,16.65
2022-08-18T14:13:38.132Z,17.23
2022-08-18T14:16:10.959Z,14.68
2022-08-18T14:18:42.815Z,13.00
2022-08-18T14:21:30.841Z,13.18
2022-08-18T14:24:15.573Z,11.15
2022-08-18T14:26:50.975Z,10.38
2022-08-18T14:29:45.529Z,10.45
2022-08-18T14:32:06.530Z,10.40
2022-08-18T14:34:33.051Z,11.10
2022-08-18T14:36:59.586Z,9.55
2022-08-18T14:39:26.128Z,9.30
2022-08-18T14:41:56.162Z,8.27
2022-08-18T14:44:25.471Z,9.93
2022-08-18T14:46:58.482Z,9.18
2022-08-18T14:49:28.660Z,10.65
2022-08-18T14:52:00.593Z,10.48
2022-08-18T14:54:28.693Z,9.27
2022-08-18T14:56:59.841Z,8.23
2022-08-18T14:59:28.409Z,8.07
2022-08-18T15:01:55.074Z,8.00
2022-08-18T15:04:21.853Z,8.32
2022-08-18T15:06:56.365Z,7.88
2022-08-18T15:09:27.431Z,7.63
2022-08-18T15:11:56.280Z,7.90
2022-08-18T15:14:26.664Z,7.22
2022-08-18T15:17:11.997Z,6.70
2022-08-18T15:25:58.948Z,7.20
2022-08-18T15:28:27.888Z,7.07
2022-08-18T15:33:41.999Z,6.63
2022-08-18T15:36:10.237Z,6.22
2022-08-18T15:38:36.917Z,6.10
2022-08-18T15:41:06.146Z,6.50
2022-08-18T15:43:45.803Z,6.55
2022-08-18T15:46:13.989Z,6.50
2022-08-18T15:48:43.670Z,6.40
2022-08-18T15:51:11.703Z,6.57
2022-08-18T15:53:44.592Z,6.25
2022-08-18T15:56:14.615Z,6.00
2022-08-18T15:58:41.122Z,5.22
2022-08-18T16:01:29.751Z,5.95
2022-08-18T16:03:56.712Z,5.70
2022-08-18T16:06:27.682Z,5.40
2022-08-18T16:09:00.356Z,4.80
2022-08-18T16:13:58.827Z,4.20
2022-08-18T16:16:29.253Z,4.63
2022-08-18T16:19:04.457Z,4.47
2022-08-18T16:21:31.145Z,4.35
2022-08-18T16:23:58.258Z,4.38
2022-08-18T16:26:24.973Z,4.95
2022-08-18T16:28:52.888Z,4.47
2022-08-18T16:31:26.273Z,4.47
2022-08-18T16:33:54.901Z,4.70
2022-08-18T16:36:25.411Z,4.53
2022-08-18T16:38:53.572Z,4.32
2022-08-18T16:41:20.348Z,4.28
2022-08-18T16:43:47.441Z,4.70
2022-08-18T16:46:18.246Z,4.80
2022-08-18T16:48:45.839Z,4.80
2022-08-18T16:51:16.091Z,4.75
2022-08-18T16:53:43.229Z,4.57
2022-08-18T16:56:18.890Z,5.35
2022-08-18T16:59:05.261Z,4.85
2022-08-18T17:01:51.769Z,4.78
2022-08-18T17:04:25.841Z,4.57
2022-08-18T17:06:52.449Z,4.43
2022-08-18T17:09:19.980Z,4.80
2022-08-18T17:11:51.595Z,4.90
2022-08-18T17:14:23.136Z,4.85
2022-08-18T17:16:54.301Z,4.60
2022-08-18T17:19:23.310Z,4.93
2022-08-18T17:21:49.870Z,4.93
2022-08-18T17:24:18.104Z,4.85
2022-08-18T17:27:03.993Z,4.40
2022-08-18T17:29:48.236Z,4.15
2022-08-18T17:35:21.074Z,5.65
2022-08-18T17:38:15.102Z,4.88
2022-08-18T17:40:50.858Z,4.43
2022-08-18T17:43:20.117Z,5.40
2022-08-18T17:45:53.530Z,4.32
2022-08-18T17:48:32.170Z,4.45
2022-08-18T17:51:31.124Z,5.00
2022-08-18T17:54:00.953Z,4.70
2022-08-18T17:56:42.350Z,4.38
2022-08-18T17:59:45.514Z,4.57
2022-08-18T18:02:29.316Z,4.97
2022-08-18T18:05:07.575Z,4.35
2022-08-18T18:07:43.246Z,4.60
2022-08-18T18:10:14.295Z,4.38
2022-08-18T18:12:41.582Z,4.40
2022-08-18T18:15:12.043Z,4.32
2022-08-18T18:17:43.151Z,4.93
2022-08-18T18:20:24.509Z,4.63
2022-08-18T18:22:52.103Z,4.70
2022-08-18T18:25:34.716Z,5.17
2022-08-18T18:28:02.197Z,4.65
2022-08-18T18:30:32.743Z,4.90
2022-08-18T18:33:04.502Z,4.60
2022-08-18T18:35:53.265Z,4.93
2022-08-18T18:38:30.583Z,5.05
2022-08-18T18:41:16.961Z,4.63
2022-08-18T18:43:46.966Z,4.90
2022-08-18T18:46:35.211Z,4.82
2022-08-18T18:51:52.797Z,5.03
2022-08-18T18:54:38.491Z,5.07
2022-08-18T18:57:31.953Z,5.03
2022-08-18T19:00:10.526Z,5.00
2022-08-18T19:02:49.064Z,5.13
2022-08-18T19:05:23.122Z,5.07
2022-08-18T19:08:14.197Z,5.10
2022-08-18T19:11:03.041Z,5.38
2022-08-18T19:13:39.717Z,4.63
2022-08-18T19:16:23.355Z,5.30
2022-08-18T19:18:57.656Z,4.95
2022-08-18T19:22:04.370Z,5.30
2022-08-18T19:24:39.288Z,6.18
2022-08-18T19:27:25.414Z,6.50
2022-08-18T19:29:56.276Z,6.20
2022-08-18T19:32:32.447Z,6.63
2022-08-18T19:35:01.167Z,5.68
2022-08-18T19:38:04.559Z,5.75
2022-08-18T19:40:52.846Z,5.90
2022-08-18T19:43:36.111Z,5.35
2022-08-18T19:46:12.061Z,5.07
2022-08-18T19:48:51.511Z,5.25
2022-08-18T19:51:39.226Z,4.75
2022-08-18T19:54:53.430Z,5.70
2022-08-18T19:57:22.414Z,4.93
2022-08-18T20:00:12.001Z,5.05
2022-08-18T20:03:15.791Z,5.60
2022-08-18T20:05:58.816Z,5.45
2022-08-18T20:09:09.613Z,5.22
2022-08-18T20:12:13.611Z,4.65
2022-08-18T20:14:42.970Z,5.15
2022-08-18T20:17:09.399Z,5.25
2022-08-18T20:19:35.917Z,4.90
2022-08-18T20:22:24.673Z,5.25
2022-08-18T20:25:27.771Z,5.28
2022-08-18T20:28:23.545Z,5.10
2022-08-18T20:31:06.083Z,5.18
2022-08-18T20:33:39.247Z,4.95
2022-08-18T20:36:24.495Z,4.80
2022-08-18T20:38:53.749Z,5.50
2022-08-18T20:41:23.205Z,4.88
2022-08-18T20:43:55.479Z,5.88
2022-08-18T20:46:36.219Z,5.90
2022-08-18T20:49:43.846Z,5.75
2022-08-18T20:52:15.246Z,5.35
2022-08-18T20:54:58.506Z,5.35
2022-08-18T20:57:34.878Z,5.07
2022-08-18T21:00:26.760Z,4.95
2022-08-18T21:02:59.481Z,5.40
2022-08-18T21:05:34.070Z,5.22
2022-08-18T21:08:03.272Z,5.63
2022-08-18T21:10:32.613Z,5.38
2022-08-18T21:13:05.608Z,5.43
2022-08-18T21:15:38.296Z,4.93
2022-08-18T21:18:16.443Z,5.05
2022-08-18T21:20:42.994Z,4.43
2022-08-18T21:23:12.913Z,4.05
2022-08-18T21:25:55.487Z,4.53
2022-08-18T21:28:25.369Z,5.22
2022-08-18T21:31:29.180Z,4.97
2022-08-18T21:33:57.353Z,5.13
2022-08-18T21:36:31.429Z,5.03
2022-08-18T21:39:15.882Z,5.57
2022-08-18T21:41:48.176Z,4.30
2022-08-18T21:44:16.822Z,4.75
2022-08-18T21:46:45.562Z,4.90
2022-08-18T21:49:12.499Z,5.55
2022-08-18T21:51:45.927Z,5.32
2022-08-18T21:54:18.176Z,4.93
2022-08-18T21:56:44.914Z,5.90
2022-08-18T21:59:17.179Z,5.05
2022-08-18T22:01:53.735Z,5.15
2022-08-18T22:04:33.591Z,5.18
2022-08-18T22:07:03.922Z,5.07
2022-08-18T22:09:53.686Z,5.70
2022-08-18T22:12:49.363Z,5.70
2022-08-18T22:15:36.501Z,5.28
2022-08-18T22:18:28.613Z,5.97
2022-08-18T22:20:57.694Z,6.28
2022-08-18T22:23:45.258Z,5.82
2022-08-18T22:26:16.464Z,5.35
2022-08-18T22:28:42.941Z,6.07
2022-08-18T22:31:09.464Z,6.05
2022-08-18T22:33:36.013Z,6.20
2022-08-18T22:36:03.795Z,6.03
2022-08-18T22:38:30.792Z,5.75
2022-08-18T22:40:59.694Z,5.63
2022-08-18T22:43:26.388Z,5.65
2022-08-18T22:45:53.321Z,4.90
2022-08-18T22:48:19.839Z,5.03
2022-08-18T22:50:46.883Z,5.35
2022-08-18T22:53:14.555Z,5.75
2022-08-18T22:55:41.490Z,5.55
2022-08-18T22:58:08.506Z,5.45
2022-08-18T23:00:37.910Z,5.43
2022-08-18T23:03:06.837Z,5.68
2022-08-18T23:05:33.365Z,6.15
2022-08-18T23:07:59.845Z,6.13
2022-08-18T23:10:26.592Z,5.72
2022-08-18T23:12:53.281Z,6.50
2022-08-18T23:15:20.316Z,5.63
2022-08-18T23:17:47.210Z,5.18
2022-08-18T23:20:19.172Z,5.97
2022-08-18T23:22:47.838Z,5.53
2022-08-18T23:25:14.499Z,5.68
2022-08-18T23:27:42.896Z,5.47
2022-08-18T23:32:36.367Z,5.55
2022-08-18T23:35:02.987Z,5.35
2022-08-18T23:37:30.445Z,5.75
2022-08-18T23:39:57.157Z,5.50
2022-08-18T23:42:23.864Z,5.93
2022-08-18T23:44:50.397Z,5.68
2022-08-18T23:47:19.532Z,6.55
2022-08-18T23:49:46.358Z,6.60
2022-08-18T23:52:12.879Z,6.80
2022-08-18T23:54:39.406Z,6.60
2022-08-18T23:57:05.927Z,6.63
2022-08-18T23:59:32.528Z,6.45
